Time;durP1;ratioP1;P1;durP2;ratioP2;P2;SDS_P1;SDS_P2;PMS_P1;PMS_P2;Temp;Humidity;BMP_temperature;BMP_pressure;BME280_temperature;BME280_humidity;BME280_pressure;Samples;Min_cycle;Max_cycle;Signal;HPM_P1;HPM_P2
2022/05/02 00:01:31;;;;;;;4.97;2.65;;;9.40;99.90;;;;;;4977479;28;20066;-69
2022/05/02 00:03:56;;;;;;;8.50;2.75;;;9.30;99.90;;;;;;4979795;28;20383;-68
2022/05/02 00:06:23;;;;;;;5.10;2.63;;;9.40;99.90;;;;;;4982070;28;20039;-69
2022/05/02 00:08:49;;;;;;;5.93;3.40;;;9.30;99.90;;;;;;4979933;28;20026;-69
2022/05/02 00:11:14;;;;;;;4.68;2.42;;;9.30;99.90;;;;;;4980026;28;20031;-68
2022/05/02 00:13:40;;;;;;;7.13;3.33;;;9.30;99.90;;;;;;4980161;28;20069;-68
2022/05/02 00:16:07;;;;;;;4.30;2.30;;;9.20;99.90;;;;;;4977579;28;20126;-67
2022/05/02 00:18:32;;;;;;;7.47;3.10;;;9.20;99.90;;;;;;4981825;28;20073;-67
2022/05/02 00:20:58;;;;;;;6.55;2.65;;;9.20;99.90;;;;;;4976852;28;20441;-68
2022/05/02 00:23:23;;;;;;;7.35;2.97;;;9.20;99.90;;;;;;4980997;28;20047;-69
2022/05/02 00:25:50;;;;;;;9.70;3.10;;;9.10;99.90;;;;;;4977776;28;20077;-69
2022/05/02 00:28:15;;;;;;;6.57;3.20;;;9.10;99.90;;;;;;4978840;28;20622;-66
2022/05/02 00:30:42;;;;;;;5.75;2.42;;;9.00;99.90;;;;;;4979671;28;20043;-68
2022/05/02 00:33:07;;;;;;;5.50;2.75;;;9.10;99.90;;;;;;4978655;28;20046;-69
2022/05/02 00:35:33;;;;;;;4.30;2.42;;;9.00;99.90;;;;;;4976667;28;20450;-68
2022/05/02 00:37:59;;;;;;;6.57;2.85;;;9.00;99.90;;;;;;4979639;28;20035;-68
2022/05/02 00:40:25;;;;;;;7.10;3.20;;;9.00;99.90;;;;;;4978378;28;20042;-66
2022/05/02 00:42:51;;;;;;;5.63;3.13;;;8.90;99.90;;;;;;4977881;28;20049;-69
2022/05/02 00:45:18;;;;;;;7.90;3.45;;;8.90;99.90;;;;;;4979980;28;20042;-68
2022/05/02 00:47:57;;;;;;;4.85;3.13;;;8.90;99.90;;;;;;4979302;28;20464;-69
2022/05/02 00:50:32;;;;;;;5.38;3.10;;;8.90;99.90;;;;;;4981007;28;20046;-69
2022/05/02 00:52:58;;;;;;;5.43;2.90;;;8.80;99.90;;;;;;4972153;28;20455;-69
2022/05/02 00:55:24;;;;;;;6.35;2.88;;;8.80;99.90;;;;;;4979548;28;20405;-68
2022/05/02 00:57:51;;;;;;;8.23;2.85;;;8.70;99.90;;;;;;4977157;28;20129;-69
2022/05/02 01:00:17;;;;;;;6.60;3.63;;;8.70;99.90;;;;;;4979399;28;20054;-67
2022/05/02 01:02:42;;;;;;;6.55;3.05;;;8.70;99.90;;;;;;4976533;28;20046;-68
2022/05/02 01:05:08;;;;;;;6.50;2.78;;;8.70;99.90;;;;;;4977190;28;20046;-69
2022/05/02 01:07:33;;;;;;;8.18;3.38;;;8.60;99.90;;;;;;4979330;28;20050;-69
2022/05/02 01:09:59;;;;;;;9.07;3.63;;;8.60;99.90;;;;;;4975875;28;20042;-69
2022/05/02 01:12:26;;;;;;;5.20;2.92;;;8.60;99.90;;;;;;4980162;28;20066;-67
2022/05/02 01:14:54;;;;;;;12.18;3.10;;;8.60;99.90;;;;;;4980833;28;20410;-67
2022/05/02 01:17:20;;;;;;;8.43;2.95;;;8.60;99.90;;;;;;4976386;28;20046;-68
2022/05/02 01:19:46;;;;;;;9.52;3.78;;;8.60;99.90;;;;;;4979322;28;20125;-68
2022/05/02 01:22:12;;;;;;;8.57;3.53;;;8.50;99.90;;;;;;4978533;28;20085;-68
2022/05/02 01:24:46;;;;;;;8.20;3.88;;;8.50;99.90;;;;;;4977831;28;20038;-69
2022/05/02 01:27:13;;;;;;;7.63;3.45;;;8.50;99.90;;;;;;4978289;28;20042;-69
2022/05/02 01:29:42;;;;;;;6.05;3.10;;;8.50;99.90;;;;;;4977056;28;20039;-68
2022/05/02 01:32:09;;;;;;;7.20;3.00;;;8.40;99.90;;;;;;4979195;28;20121;-69
2022/05/02 01:34:42;;;;;;;8.00;3.72;;;8.40;99.90;;;;;;4977330;28;20038;-68
2022/05/02 01:37:09;;;;;;;8.50;3.55;;;8.30;99.90;;;;;;4977834;28;20046;-69
2022/05/02 01:39:34;;;;;;;7.97;3.70;;;8.30;99.90;;;;;;4976421;28;20035;-69
2022/05/02 01:42:01;;;;;;;6.90;3.33;;;8.30;99.90;;;;;;4976711;28;20030;-69
2022/05/02 01:44:27;;;;;;;6.93;2.85;;;8.30;99.90;;;;;;4977985;28;20061;-68
2022/05/02 01:46:53;;;;;;;5.68;3.03;;;8.20;99.90;;;;;;4972249;28;20410;-68
2022/05/02 01:49:19;;;;;;;10.75;3.72;;;8.20;99.90;;;;;;4978424;28;20042;-68
2022/05/02 01:51:45;;;;;;;10.50;3.65;;;8.20;99.90;;;;;;4978181;28;20038;-69
2022/05/02 01:54:10;;;;;;;5.82;3.15;;;8.10;99.90;;;;;;4976509;28;20043;-69
2022/05/02 01:56:36;;;;;;;7.18;3.08;;;8.10;99.90;;;;;;4977370;28;20047;-69
2022/05/02 01:59:03;;;;;;;6.78;3.38;;;8.10;99.90;;;;;;4977666;28;20090;-69
2022/05/02 02:01:29;;;;;;;7.63;3.67;;;8.10;99.90;;;;;;4980005;28;20494;-69
2022/05/02 02:03:54;;;;;;;5.47;3.13;;;8.10;99.90;;;;;;4976490;28;20065;-68
2022/05/02 02:06:21;;;;;;;5.82;3.42;;;8.10;99.90;;;;;;4979550;28;20034;-67
2022/05/02 02:08:48;;;;;;;7.35;3.95;;;8.10;99.90;;;;;;4977866;28;20034;-68
2022/05/02 02:11:14;;;;;;;8.32;3.53;;;8.00;99.90;;;;;;4978457;28;20041;-68
2022/05/02 02:13:40;;;;;;;5.50;3.63;;;8.00;99.90;;;;;;4976183;28;20513;-68
2022/05/02 02:16:10;;;;;;;5.75;3.30;;;7.90;99.90;;;;;;4978257;28;20062;-68
2022/05/02 02:18:39;;;;;;;6.38;3.50;;;7.90;99.90;;;;;;4978645;28;20105;-68
2022/05/02 02:21:07;;;;;;;7.10;3.40;;;7.90;99.90;;;;;;4976310;28;20659;-68
2022/05/02 02:23:33;;;;;;;7.72;3.85;;;7.80;99.90;;;;;;4976773;28;20129;-68
2022/05/02 02:25:59;;;;;;;8.55;3.85;;;7.80;99.90;;;;;;4975372;28;20118;-71
2022/05/02 02:28:24;;;;;;;7.50;3.65;;;7.80;99.90;;;;;;4979005;28;20042;-68
2022/05/02 02:30:50;;;;;;;6.97;3.30;;;7.70;99.90;;;;;;4971510;28;20062;-69
2022/05/02 02:33:16;;;;;;;6.85;4.00;;;7.80;99.90;;;;;;4978826;28;20570;-66
2022/05/02 02:35:41;;;;;;;7.85;3.58;;;7.80;99.90;;;;;;4975891;28;20387;-69
2022/05/02 02:38:12;;;;;;;8.02;3.67;;;7.70;99.90;;;;;;4977327;28;20046;-68
2022/05/02 02:40:38;;;;;;;6.82;3.60;;;7.70;99.90;;;;;;4977958;28;20046;-68
2022/05/02 02:43:04;;;;;;;6.40;3.40;;;7.70;99.90;;;;;;4973304;28;20046;-69
2022/05/02 02:45:30;;;;;;;8.32;3.80;;;7.70;99.90;;;;;;4976082;28;20043;-65
2022/05/02 02:47:55;;;;;;;7.25;3.20;;;7.70;99.90;;;;;;4979102;28;20141;-67
2022/05/02 02:50:21;;;;;;;9.75;4.15;;;7.70;99.90;;;;;;4975444;28;20027;-67
2022/05/02 02:52:46;;;;;;;6.38;3.58;;;7.70;99.90;;;;;;4982122;28;20049;-67
2022/05/02 02:55:12;;;;;;;8.45;4.18;;;7.70;99.90;;;;;;4985131;28;20035;-68
2022/05/02 02:57:37;;;;;;;7.60;3.92;;;7.60;99.90;;;;;;4986877;28;20503;-68
2022/05/02 03:00:07;;;;;;;6.60;3.25;;;7.60;99.90;;;;;;4983512;28;20047;-69
2022/05/02 03:02:33;;;;;;;6.30;3.63;;;7.50;99.90;;;;;;4983668;28;20043;-68
2022/05/02 03:07:44;;;;;;;6.80;3.83;;;7.50;99.90;;;;;;4981494;28;20085;-68
2022/05/02 03:10:09;;;;;;;8.85;3.25;;;7.40;99.90;;;;;;4980911;28;20129;-68
2022/05/02 03:12:35;;;;;;;8.90;4.45;;;7.40;99.90;;;;;;4977695;28;20138;-69
2022/05/02 03:15:00;;;;;;;10.23;4.03;;;7.40;99.90;;;;;;4983744;28;20050;-67
2022/05/02 03:17:26;;;;;;;9.43;3.78;;;7.30;99.90;;;;;;4984454;28;20049;-67
2022/05/02 03:19:51;;;;;;;9.68;4.13;;;7.40;99.90;;;;;;4976190;28;20041;-67
2022/05/02 03:22:17;;;;;;;7.18;3.47;;;7.40;99.90;;;;;;4971849;28;20138;-68
2022/05/02 03:24:43;;;;;;;7.65;4.70;;;7.40;99.90;;;;;;4987007;28;20035;-67
2022/05/02 03:27:08;;;;;;;11.75;4.07;;;7.30;99.90;;;;;;4985171;28;20030;-67
2022/05/02 03:29:36;;;;;;;8.68;3.90;;;7.30;99.90;;;;;;4983113;28;20039;-68
2022/05/02 03:32:02;;;;;;;8.75;4.25;;;7.30;99.90;;;;;;4985406;28;20045;-68
2022/05/02 03:34:27;;;;;;;7.10;3.88;;;7.30;99.90;;;;;;4982800;28;20542;-70
2022/05/02 03:36:53;;;;;;;7.65;3.58;;;7.20;99.90;;;;;;4982180;28;20042;-67
2022/05/02 03:39:19;;;;;;;7.97;3.40;;;7.20;99.90;;;;;;4977384;28;20045;-68
2022/05/02 03:41:44;;;;;;;8.15;4.05;;;7.20;99.90;;;;;;4981586;28;20513;-68
2022/05/02 03:44:10;;;;;;;8.30;3.83;;;7.20;99.90;;;;;;4980083;28;20057;-67
2022/05/02 03:46:35;;;;;;;6.93;3.70;;;7.20;99.90;;;;;;4978937;28;20117;-72
2022/05/02 03:49:01;;;;;;;6.55;3.58;;;7.20;99.90;;;;;;4981267;28;20035;-68
2022/05/02 03:51:27;;;;;;;8.10;3.58;;;7.20;99.90;;;;;;4978075;28;20475;-67
2022/05/02 03:53:53;;;;;;;6.28;3.50;;;7.10;99.90;;;;;;4979395;28;20090;-72
2022/05/02 03:56:18;;;;;;;6.43;3.55;;;7.10;99.90;;;;;;4978590;28;20068;-68
2022/05/02 03:58:44;;;;;;;16.08;3.97;;;7.00;99.90;;;;;;4983040;28;20039;-67
2022/05/02 04:01:09;;;;;;;6.95;3.60;;;7.00;99.90;;;;;;4978585;28;20125;-67
2022/05/02 04:03:35;;;;;;;7.22;3.28;;;7.00;99.90;;;;;;4981872;28;20034;-67
2022/05/02 04:06:01;;;;;;;10.82;4.35;;;6.90;99.90;;;;;;4978365;28;20046;-68
2022/05/02 04:08:26;;;;;;;9.60;4.10;;;6.90;99.90;;;;;;4977572;28;20123;-68
2022/05/02 04:10:52;;;;;;;7.60;3.22;;;6.90;99.90;;;;;;4982531;28;20030;-71
2022/05/02 04:13:17;;;;;;;11.35;4.35;;;6.80;99.90;;;;;;4985631;28;21610;-68
2022/05/02 04:15:43;;;;;;;7.95;3.75;;;6.80;99.90;;;;;;4978340;28;20160;-68
2022/05/02 04:18:09;;;;;;;7.60;4.05;;;6.80;99.90;;;;;;4983870;28;20077;-69
2022/05/02 04:20:34;;;;;;;9.48;4.13;;;6.80;99.90;;;;;;4982366;28;20098;-67
2022/05/02 04:23:00;;;;;;;6.53;3.42;;;6.80;99.90;;;;;;4979904;28;20126;-67
2022/05/02 04:25:26;;;;;;;9.85;4.93;;;6.80;99.90;;;;;;4979803;28;20041;-69
2022/05/02 04:27:51;;;;;;;9.20;4.65;;;6.80;99.90;;;;;;4979505;28;20070;-70
2022/05/02 04:30:17;;;;;;;10.73;4.50;;;6.80;99.90;;;;;;4981585;28;20074;-67
2022/05/02 04:32:42;;;;;;;9.00;4.00;;;6.80;99.90;;;;;;4978112;28;20035;-68
2022/05/02 04:35:10;;;;;;;11.20;4.28;;;6.80;99.90;;;;;;4980425;28;20054;-68
2022/05/02 04:37:36;;;;;;;6.85;3.97;;;6.90;99.90;;;;;;4981131;28;20093;-72
2022/05/02 04:40:03;;;;;;;10.57;4.38;;;6.90;99.90;;;;;;4976022;28;20035;-67
2022/05/02 04:42:29;;;;;;;7.22;3.80;;;6.90;99.90;;;;;;4977257;28;20073;-68
2022/05/02 04:44:54;;;;;;;10.00;4.15;;;6.90;99.90;;;;;;4978988;28;20039;-69
2022/05/02 04:47:20;;;;;;;13.63;4.60;;;7.00;99.90;;;;;;4976723;28;20049;-67
2022/05/02 04:49:45;;;;;;;8.35;4.22;;;6.90;99.90;;;;;;4978685;28;20078;-68
2022/05/02 04:52:11;;;;;;;10.43;4.22;;;7.00;99.90;;;;;;4976966;28;20043;-68
2022/05/02 04:54:36;;;;;;;8.18;4.35;;;7.00;99.90;;;;;;4980905;28;20514;-67
2022/05/02 04:57:02;;;;;;;8.63;4.25;;;7.10;99.90;;;;;;4976368;28;20081;-67
2022/05/02 04:59:28;;;;;;;10.85;4.75;;;7.00;99.90;;;;;;4987296;28;20030;-68
2022/05/02 05:01:53;;;;;;;8.27;4.47;;;7.10;99.90;;;;;;4978962;28;20043;-69
2022/05/02 05:04:19;;;;;;;10.07;4.60;;;7.10;99.90;;;;;;4977662;28;20701;-67
2022/05/02 05:06:45;;;;;;;8.65;3.83;;;7.10;99.90;;;;;;4981375;28;20058;-68
2022/05/02 05:09:10;;;;;;;11.45;4.13;;;7.20;99.90;;;;;;4984110;28;20097;-67
2022/05/02 05:12:21;;;;;;;11.35;4.35;;;7.20;99.90;;;;;;4980735;28;20031;-68
2022/05/02 05:18:36;;;;;;;6.93;4.20;;;7.30;99.90;;;;;;4967993;28;20050;-68
2022/05/02 05:21:23;;;;;;;10.25;4.05;;;7.30;99.90;;;;;;4974002;28;20026;-68
2022/05/02 05:24:14;;;;;;;9.73;4.40;;;7.40;99.90;;;;;;4973453;28;20031;-69
2022/05/02 05:26:49;;;;;;;9.07;4.07;;;7.40;99.90;;;;;;4986172;28;20503;-68
2022/05/02 05:29:39;;;;;;;7.43;4.13;;;7.50;99.90;;;;;;4980824;28;20463;-68
2022/05/02 05:32:05;;;;;;;7.70;3.70;;;7.60;99.90;;;;;;4973315;28;20117;-68
2022/05/02 05:34:30;;;;;;;8.70;4.70;;;7.70;99.90;;;;;;4979928;28;20086;-67
2022/05/02 05:37:25;;;;;;;10.85;4.47;;;7.80;99.90;;;;;;4975178;28;20494;-69
2022/05/02 05:40:03;;;;;;;11.23;4.90;;;7.90;99.90;;;;;;4979508;28;20034;-67
2022/05/02 05:42:36;;;;;;;9.85;4.40;;;8.00;99.90;;;;;;4974393;28;20035;-68
2022/05/02 05:45:20;;;;;;;10.68;5.15;;;8.10;99.90;;;;;;4975759;28;20046;-68
2022/05/02 05:48:09;;;;;;;8.73;4.25;;;8.30;99.90;;;;;;4974065;28;20037;-68
2022/05/02 05:50:41;;;;;;;9.43;4.30;;;9.10;99.90;;;;;;4983453;28;20037;-68
2022/05/02 05:53:26;;;;;;;8.32;3.63;;;10.70;99.90;;;;;;4981317;28;20027;-69
2022/05/02 05:56:13;;;;;;;6.13;3.33;;;12.30;99.90;;;;;;4981789;28;20045;-69
2022/05/02 05:58:57;;;;;;;8.10;3.10;;;13.70;99.90;;;;;;4975095;28;20046;-69
2022/05/02 06:01:48;;;;;;;6.25;2.97;;;15.20;99.90;;;;;;4978736;28;20172;-70
2022/05/02 06:04:16;;;;;;;8.73;3.42;;;16.10;99.90;;;;;;4972927;28;20391;-71
2022/05/02 06:06:41;;;;;;;6.43;3.80;;;17.00;99.90;;;;;;4977218;28;20478;-70
2022/05/02 06:09:10;;;;;;;8.90;3.58;;;17.50;98.70;;;;;;4976302;28;20030;-70
2022/05/02 06:11:39;;;;;;;10.90;3.65;;;18.10;98.00;;;;;;4977429;28;20042;-71
2022/05/02 06:14:06;;;;;;;6.68;3.35;;;18.60;95.00;;;;;;4978889;28;20030;-74
2022/05/02 06:19:24;;;;;;;8.32;3.85;;;19.70;91.20;;;;;;4977744;28;20100;-71
2022/05/02 06:21:52;;;;;;;5.18;3.05;;;20.10;87.70;;;;;;4977234;28;20030;-69
2022/05/02 06:24:18;;;;;;;5.25;3.30;;;20.10;85.30;;;;;;4975442;28;20031;-69
2022/05/02 06:26:46;;;;;;;4.63;3.22;;;20.40;85.20;;;;;;4978256;28;20450;-70
2022/05/02 06:29:12;;;;;;;7.68;3.38;;;20.50;83.80;;;;;;4981914;28;20097;-71
2022/05/02 06:31:44;;;;;;;8.50;4.07;;;20.70;84.40;;;;;;4979145;28;20572;-72
2022/05/02 06:34:11;;;;;;;5.38;3.70;;;20.90;82.30;;;;;;4974334;28;20066;-71
2022/05/02 06:36:49;;;;;;;4.88;3.67;;;21.60;78.50;;;;;;4980150;28;20035;-71
2022/05/02 06:39:52;;;;;;;6.78;3.28;;;21.90;77.70;;;;;;4975914;28;20043;-71
2022/05/02 06:42:29;;;;;;;5.88;3.40;;;22.10;73.40;;;;;;4978931;28;20494;-72
2022/05/02 06:45:14;;;;;;;12.10;4.20;;;22.30;74.00;;;;;;4978023;28;20038;-70
2022/05/02 06:48:04;;;;;;;8.00;3.65;;;22.80;70.20;;;;;;4976745;28;20041;-71
2022/05/02 06:50:32;;;;;;;7.97;3.58;;;23.30;70.00;;;;;;4976580;28;20046;-70
2022/05/02 06:53:18;;;;;;;8.65;4.35;;;23.00;69.60;;;;;;4978804;28;20041;-71
2022/05/02 06:56:08;;;;;;;7.65;4.38;;;23.10;66.80;;;;;;4973244;28;20038;-71
2022/05/02 06:59:01;;;;;;;8.20;5.10;;;23.60;65.80;;;;;;4980023;28;20034;-70
2022/05/02 07:02:10;;;;;;;15.80;5.60;;;23.60;64.60;;;;;;4970041;28;20407;-70
2022/05/02 07:04:53;;;;;;;7.00;5.22;;;23.90;64.50;;;;;;4918970;28;20049;-71
2022/05/02 07:07:44;;;;;;;9.40;5.28;;;23.90;62.70;;;;;;4974532;28;20562;-71
2022/05/02 07:10:32;;;;;;;8.27;5.25;;;24.00;62.60;;;;;;4976010;28;20503;-70
2022/05/02 07:13:32;;;;;;;7.32;4.97;;;23.70;62.00;;;;;;4981823;28;20066;-72
2022/05/02 07:16:22;;;;;;;8.40;5.03;;;23.20;62.70;;;;;;4981548;28;20062;-71
2022/05/02 07:19:28;;;;;;;8.55;5.15;;;23.70;60.90;;;;;;4976515;28;20184;-70
2022/05/02 07:22:02;;;;;;;7.63;3.88;;;23.70;61.20;;;;;;4980312;28;20043;-71
2022/05/02 07:25:02;;;;;;;6.93;3.97;;;24.10;60.40;;;;;;4973728;28;20042;-71
2022/05/02 07:28:05;;;;;;;6.53;3.88;;;24.30;58.60;;;;;;4977394;28;20045;-70
2022/05/02 07:30:32;;;;;;;6.70;3.83;;;24.30;58.90;;;;;;4974617;28;20039;-71
2022/05/02 07:33:01;;;;;;;11.50;4.30;;;24.20;58.80;;;;;;4973058;28;20042;-72
2022/05/02 07:35:28;;;;;;;8.85;4.00;;;23.70;57.70;;;;;;4970741;28;20039;-70
2022/05/02 07:37:54;;;;;;;5.25;3.45;;;23.70;58.40;;;;;;4970132;28;20442;-71
2022/05/02 07:40:21;;;;;;;5.53;3.92;;;23.60;58.80;;;;;;4971400;28;20038;-72
2022/05/02 07:42:47;;;;;;;8.70;4.45;;;23.60;57.50;;;;;;4967811;28;20043;-70
2022/05/02 07:45:17;;;;;;;4.88;3.70;;;22.90;58.40;;;;;;4973798;28;20046;-71
2022/05/02 07:47:43;;;;;;;5.13;3.85;;;23.00;59.30;;;;;;4974945;28;20035;-71
2022/05/02 07:50:11;;;;;;;7.85;4.20;;;23.00;57.90;;;;;;4975807;28;20042;-70
2022/05/02 07:52:41;;;;;;;8.63;4.25;;;23.00;58.60;;;;;;4971601;28;20039;-72
2022/05/02 07:55:11;;;;;;;8.13;3.50;;;22.60;58.60;;;;;;4969925;28;20137;-72
2022/05/02 07:57:39;;;;;;;8.55;3.35;;;22.50;59.20;;;;;;4971418;28;20204;-70
2022/05/02 08:00:07;;;;;;;5.35;2.95;;;22.00;58.60;;;;;;4972510;28;20035;-70
2022/05/02 08:02:33;;;;;;;6.65;3.13;;;21.40;59.60;;;;;;4973487;28;20205;-71
2022/05/02 08:04:59;;;;;;;9.25;3.80;;;21.00;61.50;;;;;;4972200;28;20042;-73
2022/05/02 08:07:37;;;;;;;7.15;3.10;;;20.70;60.90;;;;;;4969769;28;20049;-69
2022/05/02 08:10:32;;;;;;;5.22;3.28;;;20.10;63.70;;;;;;4966394;28;20047;-69
2022/05/02 08:13:19;;;;;;;10.85;3.33;;;19.60;62.70;;;;;;4971961;28;20456;-74
2022/05/02 08:15:51;;;;;;;5.25;3.03;;;19.30;61.50;;;;;;4970782;28;20038;-71
2022/05/02 08:18:50;;;;;;;4.25;2.33;;;18.90;62.70;;;;;;4978894;28;20054;-70
2022/05/02 08:21:33;;;;;;;7.18;2.90;;;18.60;64.40;;;;;;4961173;28;20070;-73
2022/05/02 08:27:15;;;;;;;4.65;2.30;;;18.60;64.90;;;;;;4950392;28;20599;-70
2022/05/02 08:29:41;;;;;;;5.60;2.83;;;18.50;64.70;;;;;;4966447;28;20074;-73
2022/05/02 08:32:19;;;;;;;15.02;4.68;;;18.70;66.80;;;;;;4968422;28;20066;-70
2022/05/02 08:34:48;;;;;;;7.68;3.10;;;18.90;66.80;;;;;;4988606;28;20643;-73
2022/05/02 08:37:23;;;;;;;5.82;2.67;;;18.80;66.70;;;;;;4969924;28;20038;-71
2022/05/02 08:40:25;;;;;;;9.90;2.97;;;18.80;66.30;;;;;;4968289;28;20490;-69
2022/05/02 08:43:15;;;;;;;4.88;2.63;;;18.50;64.60;;;;;;4960477;28;20057;-70
2022/05/02 08:46:00;;;;;;;5.80;2.58;;;18.40;65.40;;;;;;4968098;28;20046;-70
2022/05/02 08:48:34;;;;;;;7.28;2.55;;;18.40;65.70;;;;;;4972479;28;20039;-70
2022/05/02 08:51:38;;;;;;;5.40;2.72;;;18.60;66.50;;;;;;4969447;28;20077;-72
2022/05/02 08:54:17;;;;;;;8.38;2.95;;;18.50;66.00;;;;;;4968393;28;20442;-70
2022/05/02 08:56:54;;;;;;;7.85;3.90;;;18.60;67.10;;;;;;4979513;28;20065;-70
2022/05/02 08:59:22;;;;;;;10.50;3.20;;;18.30;67.80;;;;;;4975119;28;20039;-70
2022/05/02 09:01:50;;;;;;;5.18;2.75;;;18.10;68.80;;;;;;4983134;28;20058;-70
2022/05/02 09:04:41;;;;;;;6.38;2.90;;;18.00;69.50;;;;;;4973465;28;20031;-70
2022/05/02 09:07:24;;;;;;;5.60;2.80;;;18.10;68.60;;;;;;4966856;28;20401;-70
2022/05/02 09:10:06;;;;;;;6.22;2.70;;;18.10;67.40;;;;;;4981231;28;20050;-73
2022/05/02 09:13:16;;;;;;;5.85;3.28;;;18.20;68.00;;;;;;4982060;28;20204;-72
2022/05/02 09:16:15;;;;;;;5.55;3.17;;;18.10;67.90;;;;;;4961656;28;20042;-74
2022/05/02 09:19:14;;;;;;;8.55;3.40;;;18.00;68.80;;;;;;4984484;28;20035;-70
2022/05/02 09:21:49;;;;;;;9.32;2.80;;;18.00;67.90;;;;;;4969019;28;20058;-70
2022/05/02 09:24:42;;;;;;;8.45;2.85;;;18.10;68.60;;;;;;4967776;28;20039;-75
2022/05/02 09:27:25;;;;;;;8.45;3.20;;;18.20;67.90;;;;;;4974918;28;20043;-70
2022/05/02 09:30:04;;;;;;;5.28;2.80;;;18.20;67.40;;;;;;4988621;28;20070;-73
2022/05/02 09:32:48;;;;;;;9.65;2.85;;;18.40;66.80;;;;;;4987749;28;20487;-71
2022/05/02 09:35:23;;;;;;;7.10;2.67;;;18.60;65.40;;;;;;4989191;28;20143;-70
2022/05/02 09:37:56;;;;;;;5.80;3.03;;;18.60;65.80;;;;;;4989993;28;20144;-71
2022/05/02 09:40:33;;;;;;;6.00;3.05;;;18.40;67.80;;;;;;4985188;28;20030;-72
2022/05/02 09:43:25;;;;;;;10.40;3.53;;;18.50;67.50;;;;;;4977429;28;20031;-70
2022/05/02 09:49:40;;;;;;;6.82;3.58;;;18.50;67.80;;;;;;4978164;28;21007;-70
2022/05/02 09:52:12;;;;;;;5.50;2.80;;;18.30;68.30;;;;;;4967878;28;20034;-71
2022/05/02 09:58:05;;;;;;;4.80;2.42;;;18.30;68.30;;;;;;4960131;28;20070;-72
2022/05/02 10:01:08;;;;;;;3.47;2.25;;;18.40;67.30;;;;;;4987964;28;20554;-71
2022/05/02 10:03:36;;;;;;;7.35;2.83;;;18.60;67.80;;;;;;4983934;28;20039;-71
2022/05/02 10:06:08;;;;;;;4.78;2.63;;;18.50;67.00;;;;;;4967908;28;20064;-71
2022/05/02 10:08:43;;;;;;;7.63;2.40;;;18.30;67.30;;;;;;4968919;28;20047;-70
2022/05/02 10:11:19;;;;;;;4.78;2.83;;;18.40;66.60;;;;;;4970574;28;20113;-71
2022/05/02 10:14:22;;;;;;;6.30;2.20;;;18.40;66.90;;;;;;4972157;28;20557;-70
2022/05/02 10:16:50;;;;;;;5.28;2.17;;;18.60;66.60;;;;;;4971130;28;20498;-70
2022/05/02 10:19:27;;;;;;;3.97;2.35;;;18.80;66.30;;;;;;4975503;28;20034;-70
2022/05/02 10:22:16;;;;;;;6.85;2.35;;;18.70;65.60;;;;;;4969509;28;20042;-71
2022/05/02 10:25:11;;;;;;;3.95;1.98;;;18.60;64.50;;;;;;4953316;28;20042;-71
2022/05/02 10:27:59;;;;;;;5.53;2.17;;;18.70;66.80;;;;;;4975120;28;20035;-71
2022/05/02 10:30:35;;;;;;;4.05;2.05;;;18.80;64.50;;;;;;4967521;28;20127;-71
2022/05/02 10:33:05;;;;;;;9.18;2.47;;;18.80;66.00;;;;;;4971243;28;20035;-71
2022/05/02 10:35:36;;;;;;;4.25;2.03;;;18.90;65.70;;;;;;4984420;28;20046;-73
2022/05/02 10:38:04;;;;;;;6.05;2.45;;;19.10;65.60;;;;;;4973709;28;20062;-70
2022/05/02 10:40:41;;;;;;;8.63;2.75;;;19.20;65.20;;;;;;4967941;28;20062;-71
2022/05/02 10:43:16;;;;;;;3.95;2.00;;;19.20;65.10;;;;;;4958571;28;20042;-70
2022/05/02 10:45:42;;;;;;;13.32;2.22;;;19.20;64.70;;;;;;4977208;28;20042;-74
2022/05/02 10:48:11;;;;;;;3.53;1.98;;;19.10;65.10;;;;;;4971361;28;20034;-70
2022/05/02 10:50:37;;;;;;;5.80;1.85;;;18.90;64.50;;;;;;4977276;28;20049;-71
2022/05/02 10:53:13;;;;;;;3.47;1.50;;;18.90;65.40;;;;;;4971612;28;20403;-70
2022/05/02 10:55:58;;;;;;;4.25;2.42;;;19.00;64.80;;;;;;4975818;28;20368;-70
2022/05/02 10:58:24;;;;;;;3.58;1.83;;;19.20;65.30;;;;;;4972192;28;20115;-71
2022/05/02 11:01:06;;;;;;;3.72;2.03;;;19.20;64.40;;;;;;4978824;28;20153;-70
2022/05/02 11:03:59;;;;;;;4.50;2.10;;;19.00;65.40;;;;;;4973298;28;20113;-70
2022/05/02 11:06:43;;;;;;;6.97;2.53;;;19.00;65.30;;;;;;4972765;28;20177;-71
2022/05/02 11:09:20;;;;;;;6.63;2.72;;;18.90;65.00;;;;;;4976017;28;20507;-69
2022/05/02 11:11:50;;;;;;;3.90;2.17;;;18.70;65.10;;;;;;4976616;28;20062;-69
2022/05/02 11:15:01;;;;;;;9.43;2.60;;;18.60;65.40;;;;;;4979361;28;20042;-69
2022/05/02 11:17:33;;;;;;;4.30;2.40;;;18.70;65.00;;;;;;4959724;28;20081;-71
2022/05/02 11:23:19;;;;;;;3.15;2.05;;;18.80;65.20;;;;;;4981908;28;20042;-70
2022/05/02 11:26:01;;;;;;;10.38;2.05;;;18.80;66.00;;;;;;4980418;28;20530;-71
2022/05/02 11:28:40;;;;;;;5.40;2.38;;;18.90;66.30;;;;;;4976455;28;20035;-70
2022/05/02 11:31:25;;;;;;;4.28;2.50;;;18.80;66.50;;;;;;4973273;28;20043;-70
2022/05/02 11:34:09;;;;;;;6.28;2.35;;;18.80;66.10;;;;;;4978992;28;20054;-72
2022/05/02 11:36:43;;;;;;;3.85;2.00;;;18.70;66.90;;;;;;4981975;28;20446;-71
2022/05/02 11:39:12;;;;;;;5.45;2.40;;;18.60;66.70;;;;;;4975600;28;20499;-71
2022/05/02 11:41:43;;;;;;;5.35;2.67;;;18.30;66.50;;;;;;4989795;28;20096;-71
2022/05/02 11:44:15;;;;;;;6.05;2.47;;;18.10;66.60;;;;;;4969490;28;20034;-71
2022/05/02 11:47:03;;;;;;;9.27;2.80;;;18.10;67.00;;;;;;4979780;28;20498;-70
2022/05/02 11:49:50;;;;;;;4.07;1.80;;;17.90;67.30;;;;;;4965966;28;20043;-70
2022/05/02 11:52:29;;;;;;;5.63;2.42;;;18.00;67.80;;;;;;4986956;28;20045;-70
2022/05/02 11:54:56;;;;;;;6.25;2.13;;;18.00;68.30;;;;;;4981569;28;20053;-70
2022/05/02 11:57:41;;;;;;;8.07;2.40;;;18.00;67.80;;;;;;4973863;28;20363;-72
2022/05/02 12:00:08;;;;;;;5.68;2.63;;;18.10;68.30;;;;;;4984889;28;20121;-72
2022/05/02 12:02:53;;;;;;;5.00;2.83;;;18.10;68.00;;;;;;4977361;28;20084;-70
2022/05/02 12:05:31;;;;;;;9.02;2.80;;;18.10;67.80;;;;;;4970772;28;20066;-71
2022/05/02 12:08:01;;;;;;;3.95;2.20;;;18.00;68.30;;;;;;4969033;28;20054;-72
2022/05/02 12:10:47;;;;;;;9.45;2.80;;;17.90;68.70;;;;;;4984777;28;20081;-70
2022/05/02 12:13:14;;;;;;;7.90;2.55;;;17.90;68.90;;;;;;4981525;28;20090;-70
2022/05/02 12:16:08;;;;;;;5.93;2.45;;;18.00;68.80;;;;;;4975345;28;20489;-70
2022/05/02 12:18:41;;;;;;;6.13;2.58;;;17.90;68.10;;;;;;4969071;28;20046;-70
2022/05/02 12:21:08;;;;;;;6.28;2.90;;;17.90;69.30;;;;;;4978493;28;20030;-70
2022/05/02 12:23:36;;;;;;;5.63;2.53;;;17.80;69.30;;;;;;4987791;28;20127;-71
2022/05/02 12:26:03;;;;;;;10.00;2.85;;;17.80;70.00;;;;;;4976612;28;20030;-71
2022/05/02 12:28:41;;;;;;;5.03;2.75;;;17.80;69.50;;;;;;4984320;28;20034;-70
2022/05/02 12:31:23;;;;;;;5.60;2.78;;;17.80;71.40;;;;;;4969746;28;20128;-72
2022/05/02 12:34:02;;;;;;;4.88;2.20;;;17.90;70.10;;;;;;4974984;28;20031;-71
2022/05/02 12:36:52;;;;;;;4.45;2.53;;;17.80;69.40;;;;;;4977082;28;20611;-70
2022/05/02 12:39:25;;;;;;;4.33;2.47;;;17.90;70.90;;;;;;4966562;28;20042;-71
2022/05/02 12:42:01;;;;;;;4.75;2.67;;;17.70;70.00;;;;;;4967397;28;20282;-70
2022/05/02 12:44:42;;;;;;;4.60;2.83;;;17.60;70.50;;;;;;4977922;28;20082;-71
2022/05/02 12:47:15;;;;;;;8.73;3.03;;;17.60;70.20;;;;;;4977102;28;20054;-70
2022/05/02 12:49:59;;;;;;;5.53;2.38;;;17.70;71.30;;;;;;4979319;28;20061;-70
2022/05/02 12:52:28;;;;;;;6.35;3.58;;;17.80;70.20;;;;;;4974545;28;20050;-70
2022/05/02 12:54:54;;;;;;;7.47;2.50;;;17.80;70.00;;;;;;4980228;28;20034;-69
2022/05/02 13:00:31;;;;;;;5.72;2.45;;;17.90;69.10;;;;;;4921928;28;20515;-71
2022/05/02 13:03:23;;;;;;;3.80;2.35;;;17.80;69.20;;;;;;4967952;28;20458;-71
2022/05/02 13:05:53;;;;;;;6.40;2.38;;;17.80;69.30;;;;;;4963929;28;20101;-71
2022/05/02 13:08:28;;;;;;;7.40;2.57;;;17.80;69.50;;;;;;4967416;28;20077;-70
2022/05/02 13:11:09;;;;;;;5.45;2.70;;;17.80;68.50;;;;;;4969312;28;20043;-71
2022/05/02 13:13:42;;;;;;;3.13;1.88;;;17.70;69.90;;;;;;4967132;28;20034;-71
2022/05/02 13:16:31;;;;;;;6.95;2.72;;;17.70;69.30;;;;;;4970647;28;20082;-70
2022/05/02 13:18:58;;;;;;;5.30;2.10;;;17.60;69.00;;;;;;4967037;28;20035;-71
2022/05/02 13:21:24;;;;;;;4.35;1.80;;;17.70;68.50;;;;;;4971384;28;20038;-70
2022/05/02 13:24:17;;;;;;;4.93;2.05;;;17.70;69.30;;;;;;4974220;28;20035;-71
2022/05/02 13:26:43;;;;;;;5.13;1.90;;;17.80;68.50;;;;;;4965787;28;20046;-71
2022/05/02 13:29:29;;;;;;;3.85;1.77;;;17.80;67.60;;;;;;4968915;28;20403;-70
2022/05/02 13:32:03;;;;;;;2.83;1.85;;;17.70;67.80;;;;;;4967432;28;20042;-69
2022/05/02 13:35:00;;;;;;;2.58;1.40;;;17.70;68.20;;;;;;4971743;28;20030;-71
2022/05/02 13:37:38;;;;;;;5.20;1.73;;;17.80;67.10;;;;;;4966351;28;20431;-70
2022/05/02 13:40:08;;;;;;;1.77;0.88;;;17.90;67.00;;;;;;4968627;28;20045;-71
2022/05/02 13:42:49;;;;;;;2.47;1.40;;;17.90;64.80;;;;;;4968854;28;20038;-70
2022/05/02 13:45:38;;;;;;;2.75;0.82;;;17.80;65.60;;;;;;4967948;28;20049;-71
2022/05/02 13:48:13;;;;;;;3.67;1.20;;;17.70;64.70;;;;;;4969168;28;20050;-71
2022/05/02 13:51:04;;;;;;;1.98;1.20;;;17.80;65.20;;;;;;4970996;28;20050;-69